Time;durP1;ratioP1;P1;durP2;ratioP2;P2;SDS_P1;SDS_P2;PMS_P1;PMS_P2;Temp;Humidity;BMP_temperature;BMP_pressure;BME280_temperature;BME280_humidity;BME280_pressure;Samples;Min_cycle;Max_cycle;Signal;HPM_P1;HPM_P2
2022/07/31 04:00:27;;;;;;;6.90;6.20;;;13.90;99.90;;;;;;5952806;23;20014;-75
2022/07/31 04:02:56;;;;;;;7.00;6.22;;;13.90;99.90;;;;;;4975925;28;20047;-74
2022/07/31 04:05:23;;;;;;;7.82;6.22;;;14.00;99.90;;;;;;4975443;28;20043;-72
2022/07/31 04:07:49;;;;;;;8.02;5.88;;;14.10;99.90;;;;;;4974702;28;20039;-72
2022/07/31 04:10:15;;;;;;;8.18;6.05;;;14.10;99.90;;;;;;4975805;28;20037;-72
2022/07/31 04:12:40;;;;;;;6.75;6.15;;;14.10;99.90;;;;;;4976618;28;20493;-72
2022/07/31 04:15:06;;;;;;;6.32;5.72;;;14.10;99.90;;;;;;4976146;28;20058;-72
2022/07/31 04:17:32;;;;;;;7.72;6.13;;;14.20;99.90;;;;;;4976482;28;20035;-72
2022/07/31 04:19:57;;;;;;;6.28;5.68;;;14.30;99.90;;;;;;4976929;28;20039;-72
2022/07/31 04:22:23;;;;;;;7.40;5.97;;;14.30;99.90;;;;;;4976231;28;20035;-72
2022/07/31 04:24:48;;;;;;;7.05;6.35;;;14.20;99.90;;;;;;4976381;28;20062;-72
2022/07/31 04:27:16;;;;;;;6.60;5.90;;;14.20;99.90;;;;;;4976681;28;20043;-73
2022/07/31 04:29:42;;;;;;;7.97;6.13;;;14.10;99.90;;;;;;4977300;28;20039;-72
2022/07/31 04:32:08;;;;;;;6.50;5.85;;;14.10;99.90;;;;;;4976875;28;20709;-72
2022/07/31 04:34:33;;;;;;;6.65;5.97;;;14.10;99.90;;;;;;4976392;28;20035;-72
2022/07/31 04:36:59;;;;;;;7.07;6.35;;;14.20;99.90;;;;;;4976775;28;20090;-71
2022/07/31 04:39:25;;;;;;;8.10;6.05;;;14.20;99.90;;;;;;4976359;28;20605;-73
2022/07/31 04:41:50;;;;;;;8.80;6.15;;;14.20;99.90;;;;;;4975738;28;20047;-73
2022/07/31 04:44:15;;;;;;;6.75;5.50;;;14.20;99.90;;;;;;4975683;28;20114;-71
2022/07/31 04:46:42;;;;;;;6.68;5.88;;;14.30;99.90;;;;;;4975763;28;20047;-72
2022/07/31 04:49:11;;;;;;;7.03;6.03;;;14.40;99.90;;;;;;4974371;28;20043;-72
2022/07/31 04:51:37;;;;;;;8.25;6.30;;;14.40;99.90;;;;;;4975581;28;20043;-72
2022/07/31 04:54:03;;;;;;;7.10;5.70;;;14.50;99.90;;;;;;4975608;28;20039;-72
2022/07/31 04:56:44;;;;;;;6.70;6.03;;;14.50;99.90;;;;;;4975612;28;20039;-72
2022/07/31 04:59:12;;;;;;;6.95;6.07;;;14.60;99.90;;;;;;4975739;28;20567;-72
2022/07/31 05:01:40;;;;;;;9.95;6.13;;;14.70;99.90;;;;;;4975106;28;20047;-72
2022/07/31 05:04:06;;;;;;;6.50;5.80;;;14.80;99.90;;;;;;4973902;28;20031;-72
2022/07/31 05:06:52;;;;;;;6.57;5.78;;;15.00;99.90;;;;;;4973830;28;20126;-72
2022/07/31 05:09:21;;;;;;;6.68;5.70;;;15.30;99.90;;;;;;4975028;28;20066;-72
2022/07/31 05:11:47;;;;;;;7.07;5.60;;;15.50;99.90;;;;;;4975196;28;20491;-72
2022/07/31 05:14:15;;;;;;;5.95;5.35;;;15.80;99.90;;;;;;4975413;28;20039;-72
2022/07/31 05:16:41;;;;;;;6.00;5.43;;;15.90;99.90;;;;;;4975401;28;20028;-72
2022/07/31 05:19:07;;;;;;;8.93;5.45;;;16.10;99.90;;;;;;4975451;28;20059;-73
2022/07/31 05:21:32;;;;;;;6.65;4.88;;;16.30;99.90;;;;;;4975005;28;20109;-72
2022/07/31 05:23:59;;;;;;;6.32;5.63;;;16.50;99.90;;;;;;4975352;28;20038;-72
2022/07/31 05:26:25;;;;;;;6.22;5.60;;;16.70;99.90;;;;;;4975326;28;20050;-71
2022/07/31 05:28:54;;;;;;;7.22;5.05;;;16.90;99.90;;;;;;4975611;28;20067;-72
2022/07/31 05:31:20;;;;;;;8.90;5.32;;;17.10;99.90;;;;;;4978327;28;20035;-72
2022/07/31 05:33:47;;;;;;;5.78;4.80;;;17.30;99.90;;;;;;4978863;28;20036;-72
2022/07/31 05:36:14;;;;;;;5.13;4.40;;;17.40;99.90;;;;;;4978684;28;20035;-72
2022/07/31 05:38:39;;;;;;;6.63;4.75;;;17.50;99.90;;;;;;4978692;28;20039;-71
2022/07/31 05:41:05;;;;;;;6.45;4.50;;;17.80;99.90;;;;;;4978540;28;20043;-73
2022/07/31 05:43:31;;;;;;;8.48;4.97;;;17.80;99.90;;;;;;4978879;28;20043;-72
2022/07/31 05:45:57;;;;;;;5.45;4.63;;;17.90;99.90;;;;;;4978491;28;20532;-72
2022/07/31 05:48:22;;;;;;;5.40;4.90;;;17.90;99.90;;;;;;4978664;28;20051;-72
2022/07/31 05:50:50;;;;;;;6.00;4.68;;;18.00;99.90;;;;;;4978482;28;20090;-72
2022/07/31 05:53:17;;;;;;;8.13;4.63;;;18.00;99.90;;;;;;4977143;28;20039;-72
2022/07/31 05:55:44;;;;;;;6.15;3.85;;;18.00;99.90;;;;;;4978394;28;20031;-72
2022/07/31 05:58:10;;;;;;;5.20;4.13;;;18.20;99.90;;;;;;4977046;28;20043;-73
2022/07/31 06:00:37;;;;;;;6.05;4.25;;;18.20;99.90;;;;;;4976569;28;20394;-72
2022/07/31 06:03:03;;;;;;;5.30;3.90;;;18.30;99.90;;;;;;4978873;28;20046;-72
2022/07/31 06:05:29;;;;;;;4.90;4.28;;;18.30;99.90;;;;;;4978429;28;20082;-72
2022/07/31 06:07:58;;;;;;;7.35;4.10;;;18.40;99.90;;;;;;4976508;28;20043;-71
2022/07/31 06:10:24;;;;;;;4.30;3.90;;;18.60;99.90;;;;;;4977322;28;20114;-71
2022/07/31 06:12:49;;;;;;;5.40;4.05;;;18.80;99.90;;;;;;4976334;28;20039;-71
2022/07/31 06:15:15;;;;;;;4.82;3.90;;;19.10;99.60;;;;;;4977651;28;20027;-72
2022/07/31 06:17:41;;;;;;;6.15;4.00;;;19.20;98.80;;;;;;4977899;28;20469;-72
2022/07/31 06:20:08;;;;;;;6.00;3.83;;;19.50;98.30;;;;;;4977698;28;20493;-72
2022/07/31 06:22:34;;;;;;;5.45;3.72;;;19.70;97.90;;;;;;4977543;28;20050;-72
2022/07/31 06:25:00;;;;;;;4.57;4.10;;;19.80;97.50;;;;;;4977563;28;20038;-71
2022/07/31 06:27:25;;;;;;;4.40;4.00;;;19.90;97.60;;;;;;4977853;28;20493;-72
2022/07/31 06:29:51;;;;;;;4.90;4.15;;;20.00;96.40;;;;;;4977733;28;20063;-72
2022/07/31 06:32:17;;;;;;;5.10;4.18;;;20.10;96.90;;;;;;4977591;28;20038;-71
2022/07/31 06:34:43;;;;;;;4.43;3.88;;;20.10;97.10;;;;;;4977265;28;20081;-72
2022/07/31 06:37:09;;;;;;;7.38;4.13;;;20.20;96.80;;;;;;4977547;28;20560;-72
2022/07/31 06:39:34;;;;;;;6.68;4.05;;;20.20;95.80;;;;;;4975954;28;20114;-72
2022/07/31 06:42:00;;;;;;;6.50;4.10;;;20.30;95.50;;;;;;4975930;28;20489;-72
2022/07/31 06:44:26;;;;;;;5.25;3.72;;;20.40;96.00;;;;;;4977197;28;20477;-72
2022/07/31 06:46:51;;;;;;;4.55;4.07;;;20.50;95.50;;;;;;4977310;28;20047;-72
2022/07/31 06:49:17;;;;;;;4.85;3.83;;;20.70;95.30;;;;;;4976795;28;20071;-72
2022/07/31 06:51:43;;;;;;;6.80;4.45;;;20.90;95.00;;;;;;4977164;28;20122;-72
2022/07/31 06:54:10;;;;;;;5.18;4.20;;;21.00;94.10;;;;;;4976894;28;20046;-72
2022/07/31 06:56:37;;;;;;;6.07;4.55;;;20.90;94.80;;;;;;4976019;28;20062;-72
2022/07/31 06:59:04;;;;;;;8.75;4.50;;;21.00;94.40;;;;;;4977071;28;20043;-72
2022/07/31 07:01:30;;;;;;;7.32;4.00;;;21.10;94.50;;;;;;4976682;28;20043;-73
2022/07/31 07:03:56;;;;;;;6.88;4.60;;;21.40;93.90;;;;;;4977055;28;20032;-72
2022/07/31 07:06:22;;;;;;;5.18;3.92;;;21.40;94.30;;;;;;4977322;28;20050;-80
2022/07/31 07:08:47;;;;;;;6.78;4.25;;;21.70;94.70;;;;;;4977139;28;20042;-76
2022/07/31 07:11:13;;;;;;;5.70;4.18;;;21.80;94.30;;;;;;4976513;28;20027;-74
2022/07/31 07:13:39;;;;;;;6.80;3.97;;;21.80;93.40;;;;;;4975659;28;20035;-71
2022/07/31 07:16:05;;;;;;;7.93;4.35;;;22.00;93.90;;;;;;4975417;28;20031;-73
2022/07/31 07:18:30;;;;;;;5.10;3.95;;;22.10;93.10;;;;;;4977077;28;20039;-73
2022/07/31 07:20:56;;;;;;;6.18;3.78;;;22.40;93.90;;;;;;4976537;28;20114;-73
2022/07/31 07:23:22;;;;;;;5.85;4.20;;;22.40;92.30;;;;;;4976505;28;20042;-73
2022/07/31 07:25:48;;;;;;;7.75;4.07;;;22.40;92.40;;;;;;4976639;28;20031;-73
2022/07/31 07:28:14;;;;;;;4.45;3.88;;;22.50;93.30;;;;;;4976444;28;20078;-73
2022/07/31 07:30:40;;;;;;;6.85;3.97;;;22.50;92.20;;;;;;4976241;28;20086;-73
2022/07/31 07:33:05;;;;;;;4.20;3.80;;;22.80;92.10;;;;;;4976153;28;20031;-73
2022/07/31 07:35:31;;;;;;;4.43;3.67;;;22.70;92.40;;;;;;4976497;28;20058;-73
2022/07/31 07:37:57;;;;;;;5.10;4.10;;;22.80;90.50;;;;;;4976488;28;20035;-73
2022/07/31 07:40:24;;;;;;;4.35;3.60;;;22.60;91.20;;;;;;4975982;28;20405;-73
2022/07/31 07:42:49;;;;;;;6.43;3.85;;;22.50;90.90;;;;;;4976416;28;20046;-73
2022/07/31 07:45:15;;;;;;;4.53;3.58;;;22.50;91.60;;;;;;4976125;28;20035;-73
2022/07/31 07:47:41;;;;;;;3.70;3.22;;;22.60;92.20;;;;;;4974788;28;20054;-73
2022/07/31 07:50:07;;;;;;;4.72;3.60;;;22.50;93.00;;;;;;4976404;28;20037;-73
2022/07/31 07:52:34;;;;;;;4.00;3.30;;;22.50;93.70;;;;;;4974141;28;20038;-73
2022/07/31 07:55:00;;;;;;;4.65;3.60;;;22.80;91.60;;;;;;4976202;28;20038;-73
2022/07/31 07:57:26;;;;;;;5.45;3.90;;;22.80;91.80;;;;;;4974928;28;20058;-73
2022/07/31 07:59:52;;;;;;;4.47;3.60;;;23.30;91.50;;;;;;4975962;28;20031;-73
2022/07/31 08:02:18;;;;;;;4.47;3.63;;;23.50;88.80;;;;;;4974320;28;20043;-73
2022/07/31 08:04:43;;;;;;;4.80;3.40;;;23.70;88.20;;;;;;4974367;28;20035;-73
2022/07/31 08:07:09;;;;;;;4.65;3.45;;;24.00;86.00;;;;;;4975964;28;20055;-73
2022/07/31 08:09:35;;;;;;;4.63;3.22;;;24.10;86.60;;;;;;4975987;28;20041;-73
2022/07/31 08:12:02;;;;;;;4.07;3.58;;;24.20;84.90;;;;;;4976019;28;20401;-73
2022/07/31 08:14:28;;;;;;;3.78;2.92;;;24.30;84.10;;;;;;4974237;28;20031;-73
2022/07/31 08:16:55;;;;;;;3.47;3.13;;;24.30;85.40;;;;;;4976027;28;20046;-73
2022/07/31 08:19:20;;;;;;;4.28;2.78;;;24.50;83.60;;;;;;4974288;28;20054;-73
2022/07/31 08:21:47;;;;;;;5.40;3.20;;;24.50;84.10;;;;;;4975832;28;20460;-73
2022/07/31 08:24:15;;;;;;;4.88;3.05;;;24.60;83.50;;;;;;4975850;28;20090;-73
2022/07/31 08:29:25;;;;;;;3.95;3.05;;;24.10;83.30;;;;;;4975897;28;20082;-73
2022/07/31 08:31:51;;;;;;;5.10;2.90;;;24.10;84.70;;;;;;4975625;28;20075;-73
2022/07/31 08:34:17;;;;;;;5.30;2.95;;;24.20;82.50;;;;;;4980086;28;20071;-75
2022/07/31 08:36:43;;;;;;;6.82;3.33;;;24.30;81.80;;;;;;4975840;28;20047;-73
2022/07/31 08:39:09;;;;;;;4.38;2.78;;;24.50;81.20;;;;;;4974068;28;20057;-73
2022/07/31 08:41:37;;;;;;;4.28;2.80;;;24.50;80.90;;;;;;4975384;28;20485;-73
2022/07/31 08:44:07;;;;;;;4.60;2.70;;;24.50;80.20;;;;;;4975187;28;20039;-73
2022/07/31 08:46:38;;;;;;;4.05;2.78;;;24.60;78.50;;;;;;4975260;28;20043;-73
2022/07/31 08:49:04;;;;;;;4.43;2.70;;;24.60;79.70;;;;;;4975479;28;20102;-73
2022/07/31 08:51:34;;;;;;;3.35;2.50;;;24.70;81.40;;;;;;4975307;28;20035;-73
2022/07/31 08:54:04;;;;;;;4.68;2.85;;;24.60;81.60;;;;;;4973840;28;20028;-73
2022/07/31 08:56:32;;;;;;;6.63;2.90;;;25.00;78.80;;;;;;4975716;28;20520;-73
2022/07/31 08:58:58;;;;;;;4.90;2.58;;;25.60;77.50;;;;;;4975536;28;20035;-73
2022/07/31 09:01:24;;;;;;;4.13;2.60;;;25.90;76.60;;;;;;4975126;28;20086;-73
2022/07/31 09:03:49;;;;;;;3.35;2.67;;;26.00;75.50;;;;;;4973907;28;20110;-73
2022/07/31 09:06:15;;;;;;;3.00;2.70;;;26.30;73.60;;;;;;4979056;28;20111;-73
2022/07/31 09:08:41;;;;;;;3.88;2.70;;;26.90;72.80;;;;;;4978615;28;20035;-73
2022/07/31 09:11:11;;;;;;;2.95;2.50;;;27.30;70.90;;;;;;4978644;28;20480;-73
2022/07/31 09:13:37;;;;;;;4.65;2.70;;;27.10;69.50;;;;;;4978705;28;20035;-73
2022/07/31 09:16:03;;;;;;;4.40;2.85;;;27.00;70.50;;;;;;4978435;28;20039;-73
2022/07/31 09:18:29;;;;;;;4.90;2.33;;;27.10;69.80;;;;;;4978695;28;20541;-73
2022/07/31 09:20:59;;;;;;;4.93;2.35;;;27.40;66.00;;;;;;4978311;28;20046;-73
2022/07/31 09:23:26;;;;;;;4.50;2.30;;;28.00;65.30;;;;;;4976977;28;20039;-73
2022/07/31 09:26:06;;;;;;;2.45;2.22;;;28.10;62.90;;;;;;4978438;28;20066;-73
2022/07/31 09:28:34;;;;;;;3.42;2.13;;;28.00;62.20;;;;;;4978546;28;20568;-73
2022/07/31 09:31:04;;;;;;;2.30;2.10;;;27.90;63.20;;;;;;4978139;28;20031;-73
2022/07/31 09:33:30;;;;;;;2.50;1.98;;;28.00;63.50;;;;;;4978169;28;20046;-73
2022/07/31 09:35:57;;;;;;;2.80;2.35;;;28.10;63.20;;;;;;4978400;28;20537;-73
2022/07/31 09:38:31;;;;;;;2.38;2.17;;;28.30;62.10;;;;;;4978061;28;20047;-73
2022/07/31 09:41:09;;;;;;;3.30;2.30;;;28.40;61.10;;;;;;4978406;28;20031;-73
2022/07/31 09:43:35;;;;;;;6.07;2.30;;;28.60;60.30;;;;;;4977013;28;20035;-73
2022/07/31 09:46:03;;;;;;;3.47;2.15;;;28.80;60.30;;;;;;4978149;28;20086;-73
2022/07/31 09:48:29;;;;;;;3.40;2.10;;;28.70;60.30;;;;;;4976798;28;20043;-73
2022/07/31 09:51:01;;;;;;;3.33;1.90;;;28.70;57.90;;;;;;4978177;28;20038;-73
2022/07/31 09:53:37;;;;;;;2.35;2.10;;;29.10;58.60;;;;;;4978092;28;20031;-73
2022/07/31 09:56:06;;;;;;;2.53;2.00;;;29.40;57.40;;;;;;4978088;28;20063;-73
2022/07/31 09:58:31;;;;;;;2.38;2.03;;;29.50;57.80;;;;;;4977825;28;20122;-73
2022/07/31 10:00:57;;;;;;;2.63;2.38;;;29.80;57.70;;;;;;4976953;28;20043;-73
2022/07/31 10:03:24;;;;;;;2.50;2.28;;;29.60;57.50;;;;;;4978163;28;20179;-73
2022/07/31 10:05:51;;;;;;;3.60;2.22;;;29.40;59.00;;;;;;4977667;28;20039;-73
2022/07/31 10:08:18;;;;;;;2.50;2.17;;;29.10;59.90;;;;;;4976315;28;20042;-73
2022/07/31 10:10:44;;;;;;;2.42;1.98;;;29.20;58.30;;;;;;4977586;28;20027;-73
2022/07/31 10:13:14;;;;;;;4.55;2.10;;;29.30;57.70;;;;;;4978571;28;20062;-74
2022/07/31 10:15:41;;;;;;;4.05;2.25;;;29.50;58.00;;;;;;4976910;28;20038;-74
2022/07/31 10:18:08;;;;;;;2.58;2.00;;;29.40;58.00;;;;;;4979524;28;20032;-80
2022/07/31 10:20:35;;;;;;;5.03;2.30;;;29.70;60.10;;;;;;4998065;28;20027;-73
2022/07/31 10:23:07;;;;;;;5.75;2.20;;;29.80;57.80;;;;;;4997104;28;20547;-72
2022/07/31 10:25:37;;;;;;;3.17;2.20;;;30.10;58.80;;;;;;4997318;28;20149;-77
2022/07/31 10:28:06;;;;;;;6.53;2.20;;;30.10;57.10;;;;;;4995801;28;20093;-73
2022/07/31 10:30:31;;;;;;;3.25;2.13;;;30.10;56.90;;;;;;4997084;28;20027;-74
2022/07/31 10:32:58;;;;;;;2.50;2.25;;;30.40;57.20;;;;;;4997251;28;20488;-73
2022/07/31 10:35:24;;;;;;;3.75;2.20;;;30.80;56.50;;;;;;4996626;28;20034;-74
2022/07/31 10:38:01;;;;;;;2.85;1.80;;;30.90;55.90;;;;;;4995537;28;20038;-73
2022/07/31 10:40:43;;;;;;;2.67;2.00;;;31.00;55.80;;;;;;4996723;28;20489;-74
2022/07/31 10:43:25;;;;;;;2.00;1.75;;;31.20;55.00;;;;;;4997035;28;20535;-73
2022/07/31 10:45:53;;;;;;;3.25;2.10;;;31.20;54.90;;;;;;4996850;28;20037;-73
2022/07/31 10:48:20;;;;;;;2.35;2.03;;;31.70;55.00;;;;;;4996518;28;20031;-73
2022/07/31 10:50:46;;;;;;;3.95;2.20;;;31.90;54.30;;;;;;4996230;28;20034;-73
2022/07/31 10:53:14;;;;;;;2.65;2.05;;;31.50;54.80;;;;;;4996831;28;20492;-73
2022/07/31 10:55:40;;;;;;;3.78;2.08;;;31.00;55.40;;;;;;4994812;28;20035;-73
2022/07/31 10:58:14;;;;;;;3.08;2.00;;;30.90;55.00;;;;;;4996867;28;20039;-73
2022/07/31 11:00:41;;;;;;;3.00;1.83;;;30.80;55.40;;;;;;4996473;28;20043;-74
2022/07/31 11:03:18;;;;;;;3.38;1.80;;;30.90;56.40;;;;;;4976337;28;20063;-76
2022/07/31 11:05:57;;;;;;;3.67;2.05;;;31.40;54.70;;;;;;4966958;28;20067;-75
2022/07/31 11:08:24;;;;;;;2.40;1.50;;;32.00;54.70;;;;;;4966507;28;20111;-75
2022/07/31 11:10:52;;;;;;;2.10;1.63;;;32.40;53.30;;;;;;4964443;28;20118;-74
2022/07/31 11:13:19;;;;;;;3.40;1.70;;;32.70;53.30;;;;;;4966101;28;20090;-74
2022/07/31 11:15:45;;;;;;;3.88;1.88;;;32.20;52.10;;;;;;4964684;28;20031;-74
2022/07/31 11:18:19;;;;;;;2.10;1.70;;;32.30;54.30;;;;;;4965044;28;20032;-74
2022/07/31 11:20:48;;;;;;;2.05;1.50;;;32.50;53.10;;;;;;4962632;28;20417;-74
2022/07/31 11:23:15;;;;;;;2.45;1.65;;;33.00;52.80;;;;;;4958416;28;20071;-75
2022/07/31 11:25:44;;;;;;;3.65;1.90;;;33.70;50.80;;;;;;4957668;28;20034;-74
2022/07/31 11:28:22;;;;;;;2.78;1.75;;;33.50;51.10;;;;;;4957131;28;20043;-75
2022/07/31 11:30:50;;;;;;;4.03;1.60;;;33.30;50.00;;;;;;4966028;28;20040;-75
2022/07/31 11:33:26;;;;;;;1.80;1.50;;;33.20;51.30;;;;;;4965915;28;20382;-74
2022/07/31 11:35:52;;;;;;;3.08;1.35;;;34.00;49.90;;;;;;4968599;28;20092;-75
2022/07/31 11:38:18;;;;;;;2.80;1.80;;;33.40;50.00;;;;;;4959871;28;20078;-78
2022/07/31 11:40:48;;;;;;;5.15;1.80;;;32.90;50.50;;;;;;4960898;28;20031;-77
2022/07/31 11:43:14;;;;;;;3.55;1.70;;;32.30;52.00;;;;;;4958358;28;20070;-73
2022/07/31 11:45:47;;;;;;;3.47;1.90;;;32.70;53.80;;;;;;4958060;28;20035;-73
2022/07/31 11:48:17;;;;;;;1.95;1.70;;;33.20;50.50;;;;;;4959274;28;20099;-74
2022/07/31 11:50:43;;;;;;;3.60;1.80;;;33.00;50.60;;;;;;4956929;28;20087;-74
2022/07/31 11:53:10;;;;;;;3.60;2.00;;;32.90;50.40;;;;;;4955710;28;20525;-74
2022/07/31 11:55:46;;;;;;;2.17;1.92;;;32.60;51.30;;;;;;4957084;28;20170;-75
2022/07/31 11:58:14;;;;;;;1.85;1.60;;;32.20;52.20;;;;;;4964144;28;20047;-74
2022/07/31 12:00:46;;;;;;;4.60;1.73;;;32.10;51.70;;;;;;4967198;28;20493;-74
2022/07/31 12:03:12;;;;;;;2.67;1.95;;;32.40;52.60;;;;;;4976611;28;20091;-78
2022/07/31 12:05:46;;;;;;;2.92;1.50;;;33.10;52.30;;;;;;4975845;28;20031;-75
2022/07/31 12:08:12;;;;;;;3.58;1.95;;;34.10;51.30;;;;;;4961109;28;20638;-74
2022/07/31 12:10:38;;;;;;;1.88;1.73;;;34.80;48.10;;;;;;4963952;28;20035;-75
2022/07/31 12:13:08;;;;;;;3.95;1.58;;;35.20;48.40;;;;;;4955488;28;20119;-75
2022/07/31 12:15:34;;;;;;;2.97;1.65;;;34.40;48.50;;;;;;4956296;28;20502;-75
2022/07/31 12:18:04;;;;;;;4.15;1.63;;;34.00;48.90;;;;;;4956600;28;20039;-75
2022/07/31 12:20:30;;;;;;;2.88;1.63;;;34.30;49.20;;;;;;4956221;28;20032;-76
2022/07/31 12:22:58;;;;;;;3.45;1.63;;;34.90;47.70;;;;;;4956222;28;20039;-75
2022/07/31 12:25:24;;;;;;;2.88;1.50;;;36.00;47.40;;;;;;4972784;28;20449;-75
2022/07/31 12:27:54;;;;;;;2.15;1.35;;;36.20;45.50;;;;;;4975648;28;20039;-75
2022/07/31 12:30:23;;;;;;;2.42;1.67;;;35.30;45.10;;;;;;4975839;28;20106;-75
2022/07/31 12:32:49;;;;;;;2.60;2.00;;;34.90;46.00;;;;;;4975510;28;20102;-75
2022/07/31 12:35:15;;;;;;;1.85;1.50;;;34.80;47.10;;;;;;4975515;28;20041;-74
2022/07/31 12:37:48;;;;;;;2.35;1.73;;;34.70;46.80;;;;;;4970029;28;20055;-75
2022/07/31 12:40:25;;;;;;;1.85;1.58;;;34.40;47.80;;;;;;4962534;28;20047;-74
2022/07/31 12:42:51;;;;;;;4.47;1.63;;;33.80;47.70;;;;;;4956272;28;20581;-75
2022/07/31 12:45:28;;;;;;;2.25;1.48;;;33.60;48.50;;;;;;4954348;28;20123;-75
2022/07/31 12:47:54;;;;;;;4.28;1.83;;;34.50;48.20;;;;;;4956217;28;20043;-75
2022/07/31 12:50:21;;;;;;;3.97;1.90;;;34.90;48.50;;;;;;4956014;28;20474;-76
2022/07/31 12:52:47;;;;;;;3.42;2.08;;;34.70;46.70;;;;;;4954739;28;20113;-75
2022/07/31 12:55:13;;;;;;;3.03;1.98;;;33.90;48.60;;;;;;4956196;28;20043;-74
2022/07/31 12:57:39;;;;;;;2.17;1.70;;;33.50;48.20;;;;;;4975364;28;20090;-75
2022/07/31 13:00:05;;;;;;;2.97;1.80;;;33.40;48.50;;;;;;4975280;28;20028;-74
2022/07/31 13:02:30;;;;;;;5.60;1.63;;;33.40;49.60;;;;;;4975312;28;20078;-74
2022/07/31 13:04:56;;;;;;;3.22;1.60;;;34.40;47.60;;;;;;4975248;28;20139;-75
2022/07/31 13:07:22;;;;;;;2.25;1.60;;;34.80;47.50;;;;;;4975364;28;20504;-75
2022/07/31 13:09:47;;;;;;;3.78;1.92;;;34.60;46.30;;;;;;4975393;28;20481;-74
2022/07/31 13:12:13;;;;;;;5.25;1.80;;;34.40;47.50;;;;;;4975185;28;20085;-75
2022/07/31 13:14:38;;;;;;;2.67;1.80;;;34.20;47.90;;;;;;4974816;28;20083;-75
2022/07/31 13:17:04;;;;;;;1.90;1.70;;;34.60;47.40;;;;;;4975428;28;20035;-75
2022/07/31 13:19:30;;;;;;;5.05;1.83;;;35.00;47.70;;;;;;4975301;28;20043;-75
2022/07/31 13:21:56;;;;;;;2.60;1.85;;;35.90;46.00;;;;;;4970462;28;20489;-75
2022/07/31 13:24:21;;;;;;;2.22;1.63;;;36.30;45.90;;;;;;4963401;28;20040;-75
2022/07/31 13:26:48;;;;;;;2.95;1.58;;;35.80;45.30;;;;;;4954412;28;20051;-80
2022/07/31 13:29:14;;;;;;;3.72;1.40;;;35.20;45.40;;;;;;4969488;28;20040;-73
2022/07/31 13:31:40;;;;;;;2.35;1.58;;;34.50;46.30;;;;;;4962111;28;20031;-74
2022/07/31 13:34:06;;;;;;;2.33;1.50;;;33.90;47.40;;;;;;4958718;28;20859;-74
2022/07/31 13:36:31;;;;;;;4.53;1.52;;;33.80;49.20;;;;;;4968693;28;20036;-74
2022/07/31 13:38:57;;;;;;;2.85;1.60;;;33.50;48.70;;;;;;4974952;28;20037;-74
2022/07/31 13:41:23;;;;;;;2.00;1.40;;;33.20;48.60;;;;;;4981057;28;20058;-72
2022/07/31 13:43:52;;;;;;;3.13;1.60;;;33.60;49.90;;;;;;4994552;28;20039;-74
2022/07/31 13:46:19;;;;;;;3.40;1.50;;;34.30;47.90;;;;;;4991703;28;20070;-74
2022/07/31 13:48:45;;;;;;;3.22;1.40;;;35.30;46.20;;;;;;4974483;28;20039;-76
2022/07/31 13:51:11;;;;;;;3.67;2.17;;;35.30;44.70;;;;;;4977918;28;20050;-73
2022/07/31 13:53:36;;;;;;;5.93;3.28;;;34.50;44.60;;;;;;4974392;28;20043;-74
2022/07/31 13:56:02;;;;;;;14.23;8.60;;;34.50;46.20;;;;;;4980218;28;20039;-75
2022/07/31 13:58:28;;;;;;;3.83;1.63;;;36.10;43.60;;;;;;4993647;28;20051;-74
2022/07/31 14:00:55;;;;;;;4.75;2.53;;;36.70;42.40;;;;;;4979551;28;20027;-74
2022/07/31 14:03:21;;;;;;;4.63;1.95;;;37.30;42.10;;;;;;4983857;28;20066;-74
2022/07/31 14:05:47;;;;;;;4.30;2.92;;;38.60;41.80;;;;;;4985217;28;20074;-73
2022/07/31 14:08:13;;;;;;;7.95;3.45;;;39.60;41.50;;;;;;4997165;28;20027;-73
2022/07/31 14:10:38;;;;;;;4.75;2.00;;;39.80;40.40;;;;;;4985762;28;20044;-81
2022/07/31 14:13:04;;;;;;;2.47;1.80;;;40.10;40.00;;;;;;4993074;28;20041;-74
2022/07/31 14:15:30;;;;;;;3.15;1.60;;;40.10;38.40;;;;;;4996806;28;20481;-74
2022/07/31 14:17:55;;;;;;;8.32;5.07;;;39.80;39.00;;;;;;4996943;28;20047;-74
2022/07/31 14:20:21;;;;;;;2.88;1.60;;;39.80;39.00;;;;;;5004917;28;20027;-77
2022/07/31 14:22:46;;;;;;;2.78;1.75;;;40.40;39.40;;;;;;5000848;28;20047;-73
2022/07/31 14:25:12;;;;;;;1.95;1.70;;;40.90;39.10;;;;;;4996890;28;20077;-76
2022/07/31 14:27:38;;;;;;;2.70;1.75;;;40.70;37.90;;;;;;4996994;28;20493;-78
2022/07/31 14:30:09;;;;;;;3.88;1.85;;;41.00;38.40;;;;;;4991331;28;20484;-74
2022/07/31 14:32:34;;;;;;;2.58;1.80;;;40.00;38.10;;;;;;4996561;28;20046;-79
2022/07/31 14:35:00;;;;;;;7.20;4.68;;;37.20;41.10;;;;;;4974074;28;20062;-72
2022/07/31 14:37:25;;;;;;;53.13;35.45;;;35.80;44.30;;;;;;4971891;28;20039;-74
2022/07/31 14:39:51;;;;;;;14.25;10.68;;;35.10;45.80;;;;;;4982216;28;20397;-74
2022/07/31 14:42:18;;;;;;;8.40;6.00;;;34.60;45.90;;;;;;4997326;28;20125;-74
2022/07/31 14:44:44;;;;;;;5.45;4.25;;;33.70;47.00;;;;;;4996903;28;20033;-73
2022/07/31 14:47:10;;;;;;;7.57;4.22;;;33.00;48.20;;;;;;4997425;28;20038;-74
2022/07/31 14:49:37;;;;;;;3.75;2.10;;;32.60;49.40;;;;;;4995825;28;20090;-74
2022/07/31 14:52:02;;;;;;;6.97;4.60;;;32.40;49.40;;;;;;4997341;28;20125;-73
2022/07/31 14:54:28;;;;;;;13.10;9.50;;;32.30;49.90;;;;;;4995629;28;20122;-74
2022/07/31 14:56:54;;;;;;;21.52;11.23;;;32.20;50.20;;;;;;4989404;28;20039;-74
2022/07/31 14:59:20;;;;;;;2.80;2.15;;;32.40;49.40;;;;;;4994524;28;20150;-74
2022/07/31 15:01:46;;;;;;;3.25;1.88;;;32.20;50.20;;;;;;4994814;28;20125;-74
2022/07/31 15:04:11;;;;;;;2.92;2.03;;;32.30;50.00;;;;;;4996361;28;20113;-73
2022/07/31 15:06:37;;;;;;;19.75;14.45;;;32.10;50.80;;;;;;4996824;28;20034;-73
2022/07/31 15:09:03;;;;;;;51.90;29.23;;;31.90;50.90;;;;;;4987706;28;20043;-73
2022/07/31 15:11:28;;;;;;;6.55;4.70;;;31.80;51.30;;;;;;4981122;28;20062;-72
2022/07/31 15:13:54;;;;;;;2.25;1.90;;;31.90;52.50;;;;;;4996263;28;20039;-73
2022/07/31 15:16:20;;;;;;;2.38;2.03;;;32.00;51.70;;;;;;4992741;28;20485;-73
2022/07/31 15:18:45;;;;;;;7.28;3.83;;;32.40;50.80;;;;;;4975185;28;20047;-73
2022/07/31 15:21:12;;;;;;;4.75;2.80;;;33.70;49.10;;;;;;4995913;28;20058;-75
2022/07/31 15:23:37;;;;;;;2.63;1.70;;;36.80;45.60;;;;;;4996466;28;20085;-73
2022/07/31 15:26:03;;;;;;;3.40;2.20;;;38.50;42.30;;;;;;4991036;28;20074;-73
2022/07/31 15:28:29;;;;;;;58.28;29.63;;;38.10;42.90;;;;;;4976424;28;20043;-73
2022/07/31 15:30:54;;;;;;;2.30;2.10;;;38.30;42.30;;;;;;4975073;28;20035;-73
2022/07/31 15:33:20;;;;;;;4.60;1.80;;;39.60;42.20;;;;;;4982293;28;20544;-71
2022/07/31 15:35:46;;;;;;;2.05;1.80;;;40.50;40.00;;;;;;4986864;28;20067;-74
2022/07/31 15:38:11;;;;;;;2.85;1.90;;;39.30;40.80;;;;;;4971451;28;20583;-72
2022/07/31 15:40:37;;;;;;;3.97;1.85;;;39.10;39.20;;;;;;4973090;28;20055;-72
2022/07/31 15:43:03;;;;;;;4.90;1.70;;;41.00;38.30;;;;;;4968446;28;20046;-71
2022/07/31 15:45:52;;;;;;;4.45;1.88;;;42.30;37.10;;;;;;4969627;28;20035;-72
2022/07/31 15:48:18;;;;;;;4.20;2.60;;;41.00;36.40;;;;;;4996339;28;20051;-72
2022/07/31 15:50:43;;;;;;;2.63;2.05;;;38.50;39.20;;;;;;4996163;28;20041;-71
2022/07/31 15:53:09;;;;;;;2.15;1.77;;;36.80;41.40;;;;;;4996261;28;20042;-71
2022/07/31 15:55:35;;;;;;;3.25;1.77;;;35.40;43.30;;;;;;4995782;28;20066;-72
2022/07/31 15:58:00;;;;;;;4.32;1.70;;;34.60;44.90;;;;;;4983881;28;20422;-71
2022/07/31 16:00:26;;;;;;;4.68;1.83;;;34.60;45.90;;;;;;4984978;28;20039;-72
2022/07/31 16:02:51;;;;;;;3.03;2.05;;;34.30;45.60;;;;;;4996266;28;20862;-71
2022/07/31 16:05:17;;;;;;;2.63;1.70;;;35.80;44.20;;;;;;4996083;28;20057;-71
2022/07/31 16:07:43;;;;;;;3.15;1.73;;;36.10;43.40;;;;;;4995670;28;20072;-71
2022/07/31 16:10:14;;;;;;;3.90;1.90;;;35.40;45.00;;;;;;4996007;28;20122;-71
2022/07/31 16:12:41;;;;;;;3.88;1.70;;;34.60;45.10;;;;;;4995692;28;20931;-80
2022/07/31 16:15:07;;;;;;;8.18;1.90;;;33.80;47.60;;;;;;4995848;28;20042;-74
2022/07/31 16:17:36;;;;;;;2.45;1.80;;;33.40;49.10;;;;;;4982638;28;20419;-73
2022/07/31 16:20:08;;;;;;;2.53;1.70;;;32.90;48.30;;;;;;4995426;28;21038;-74
2022/07/31 16:22:35;;;;;;;2.78;1.80;;;33.30;47.50;;;;;;4995660;28;20162;-73
2022/07/31 16:25:00;;;;;;;3.95;1.70;;;33.30;48.20;;;;;;4995681;28;20180;-73
2022/07/31 16:27:26;;;;;;;2.53;1.80;;;33.10;47.20;;;;;;4995764;28;20085;-73
2022/07/31 16:29:52;;;;;;;4.22;2.03;;;34.00;48.30;;;;;;4984497;28;20066;-73
2022/07/31 16:32:41;;;;;;;3.20;1.63;;;34.70;46.00;;;;;;4976953;28;20035;-72
2022/07/31 16:35:08;;;;;;;3.50;1.60;;;34.40;45.00;;;;;;4969850;28;20070;-74
2022/07/31 16:37:33;;;;;;;2.75;1.88;;;35.30;45.40;;;;;;4966873;28;20070;-75
2022/07/31 16:39:59;;;;;;;2.05;1.70;;;37.00;43.40;;;;;;4976094;28;20070;-74
2022/07/31 16:42:25;;;;;;;4.32;1.80;;;38.00;42.90;;;;;;4975898;28;20047;-84
2022/07/31 16:44:54;;;;;;;2.70;1.90;;;37.60;42.50;;;;;;4993330;28;20093;-73
2022/07/31 16:47:20;;;;;;;3.67;1.60;;;36.40;42.00;;;;;;4995396;28;20038;-76